General Lucio Blanco International Airport
MMRX : rendu visible

Aérodrome :











RETROUVEZ-NOUS SUR...

 
LOGIN :

S'inscrire | Disclaimer

   EN    FR    IT 

 









Légende :    VFR   VFR Marginal   IFR   IFR Intensif   IFR Très Intensif
Visi : 
Plafond : 
>= 8 km
>= 3000ft
5 à 8 km
1000 à 3000 ft
1500m à 5 km
500 à 1000 ft
800 à 1500m
200 à 500 ft
< 800m
< 200 ft
Symboles :   Orages  Brouillard  Fortes neiges  Fortes précipitations  Vent > 20 kt






- Altitude de l'aérodrome : 139 ft
- Code IATA : REX


MMRX - General Lucio Blanco International

DERNIER METAR :
  • 161747Z 13004KT 10SM OVC020 24/17 A3004 RMK SLP171 58005 990 8/5// BINOVC

METARs EXPIRÉS :
  • 161643Z 00000KT 10SM OVC010 22/19 A3008 RMK 8/5//
  • 161540Z 16003KT 2 1/2SM BR OVC005 20/18 A3007 RMK 60015 8/6// DZE35

TAF TAF MMRX
Valide du 16 à 18h jusqu'au 17 à 18h UTC


161707Z 1618/1718 14010KT P6SM BKN015
FM162000 14012KT P6SM BKN025
FM162300 14012KT P6SM SCT030 BKN200
FM171200 00000KT 1SM BR OVC005
TEMPO 1713/1716 1/2SM FG VV002
FM171700 00000KT 5SM HZ BKN010



MET'MAP, la Météo Aéronautique d'un coup d'oeil ! - Copyright ORBIFLY Décembre 2007 - Disclaimer

ORBIFLY MET'MAP TEAM :

Programmation & Développement : Alexandra Zaïnal
Sur une idée originale de : Baudouin d'Aumeries
Assistance à la programmation : Marc-Olivier Méhu
Soutien technique & logistique : Manuel Goepfert

Contact : metmap@orbifly.com




SOURCES & CREDITS :

   NOAA       Earth
Advisory